createdAt,value
2016-04-01T00:00:54.237Z,956.46
2016-04-01T00:01:54.240Z,956.43
2016-04-01T00:02:54.243Z,956.45
2016-04-01T00:03:54.245Z,956.47
2016-04-01T00:04:54.248Z,956.52
2016-04-01T00:05:54.235Z,956.55
2016-04-01T00:06:54.238Z,956.58
2016-04-01T00:07:54.241Z,956.55
2016-04-01T00:08:54.244Z,956.59
2016-04-01T00:09:54.246Z,956.61
2016-04-01T00:10:54.249Z,956.62
2016-04-01T00:11:54.236Z,956.64
2016-04-01T00:12:54.239Z,956.64
2016-04-01T00:13:54.241Z,956.68
2016-04-01T00:14:54.244Z,956.7
2016-04-01T00:15:54.246Z,956.71
2016-04-01T00:16:54.250Z,956.72
2016-04-01T00:17:54.252Z,956.73
2016-04-01T00:18:54.254Z,956.63
2016-04-01T00:19:54.243Z,956.67
2016-04-01T00:20:54.245Z,956.65
2016-04-01T00:21:54.247Z,956.71
2016-04-01T00:22:54.251Z,956.74
2016-04-01T00:23:54.253Z,956.73
2016-04-01T00:24:54.240Z,956.71
2016-04-01T00:25:54.243Z,956.73
2016-04-01T00:26:54.245Z,956.78
2016-04-01T00:27:54.248Z,956.79
2016-04-01T00:28:54.250Z,956.85
2016-04-01T00:29:54.253Z,956.88
2016-04-01T00:30:54.256Z,956.81
2016-04-01T00:31:54.242Z,956.85
2016-04-01T00:32:54.262Z,956.94
2016-04-01T00:33:54.248Z,956.89
2016-04-01T00:34:54.250Z,956.9
2016-04-01T00:35:54.254Z,956.88
2016-04-01T00:36:54.241Z,956.96
2016-04-01T00:37:54.243Z,956.97
2016-04-01T00:38:54.247Z,956.98
2016-04-01T00:39:54.249Z,957
2016-04-01T00:40:54.252Z,957.02
2016-04-01T00:41:54.255Z,957
2016-04-01T00:42:54.257Z,956.97
2016-04-01T00:43:54.244Z,957
2016-04-01T00:44:54.246Z,956.99
2016-04-01T00:45:54.265Z,957.01
2016-04-01T00:46:54.252Z,957.06
2016-04-01T00:47:54.254Z,957.09
2016-04-01T00:48:54.257Z,957.09
2016-04-01T00:49:54.244Z,957.06
2016-04-01T00:50:54.247Z,957.11
2016-04-01T00:51:54.250Z,957.11
2016-04-01T00:52:54.252Z,957.15
2016-04-01T00:53:54.254Z,957.17
2016-04-01T00:54:54.258Z,957.13
2016-04-01T00:55:54.261Z,957.22
2016-04-01T00:56:54.248Z,957.21
2016-04-01T00:57:54.266Z,957.22
2016-04-01T00:58:54.253Z,957.27
2016-04-01T00:59:54.256Z,957.25
2016-04-01T01:00:54.259Z,957.25
2016-04-01T01:01:54.262Z,957.26
2016-04-01T01:02:54.248Z,957.3
2016-04-01T01:03:54.251Z,957.3
2016-04-01T01:04:54.254Z,957.41
2016-04-01T01:05:54.256Z,957.39
2016-04-01T01:06:54.259Z,957.43
2016-04-01T01:07:54.261Z,957.48
2016-04-01T01:08:54.249Z,957.49
2016-04-01T01:09:54.252Z,957.55
2016-04-01T01:10:54.255Z,957.52
2016-04-01T01:11:54.257Z,957.54
2016-04-01T01:12:54.260Z,957.59
2016-04-01T01:13:54.263Z,957.62
2016-04-01T01:14:54.249Z,957.61
2016-04-01T01:15:54.252Z,957.65
2016-04-01T01:16:54.255Z,957.68
2016-04-01T01:17:54.257Z,957.68
2016-04-01T01:18:54.260Z,957.7
2016-04-01T01:19:54.263Z,957.78
2016-04-01T01:20:54.265Z,957.81
2016-04-01T01:21:54.252Z,957.85
2016-04-01T01:22:54.255Z,957.86
2016-04-01T01:23:54.257Z,957.9
2016-04-01T01:24:54.260Z,957.91
2016-04-01T01:25:54.263Z,957.96
2016-04-01T01:26:54.265Z,957.95
2016-04-01T01:27:54.268Z,957.92
2016-04-01T01:28:54.256Z,957.99
2016-04-01T01:29:54.259Z,958.04
2016-04-01T01:30:54.261Z,958.07
2016-04-01T01:31:54.264Z,958.14
2016-04-01T01:32:54.267Z,958.18
2016-04-01T01:33:54.269Z,958.19
2016-04-01T01:34:54.256Z,958.24
2016-04-01T01:35:54.258Z,958.29
2016-04-01T01:36:54.261Z,958.34
2016-04-01T01:37:54.264Z,958.34
2016-04-01T01:38:54.267Z,958.36
2016-04-01T01:39:54.269Z,958.39
2016-04-01T01:40:54.256Z,958.45
2016-04-01T01:41:54.259Z,958.4
2016-04-01T01:42:54.261Z,958.46
2016-04-01T01:43:54.264Z,958.44
2016-04-01T01:44:54.266Z,958.42
2016-04-01T01:45:54.255Z,958.44
2016-04-01T01:46:54.257Z,958.39
2016-04-01T01:47:54.260Z,958.43
2016-04-01T01:48:54.263Z,958.46
2016-04-01T01:49:54.265Z,958.48
2016-04-01T01:50:54.268Z,958.49
2016-04-01T01:51:54.255Z,958.48
2016-04-01T01:52:54.257Z,958.5
2016-04-01T01:53:54.260Z,958.52
2016-04-01T01:54:54.263Z,958.56
2016-04-01T01:55:54.266Z,958.57
2016-04-01T01:56:54.268Z,958.58
2016-04-01T01:57:54.256Z,958.6
2016-04-01T01:58:54.259Z,958.62
2016-04-01T01:59:54.261Z,958.67
2016-04-01T02:00:54.264Z,958.7
2016-04-01T02:01:54.266Z,958.71
2016-04-01T02:02:54.269Z,958.74
2016-04-01T02:03:54.256Z,958.8
2016-04-01T02:04:54.258Z,958.82
2016-04-01T02:05:54.277Z,958.87
2016-04-01T02:06:54.264Z,958.86
2016-04-01T02:07:54.272Z,958.91
2016-04-01T02:08:54.258Z,958.95
2016-04-01T02:09:54.261Z,958.91
2016-04-01T02:10:54.264Z,958.92
2016-04-01T02:11:54.267Z,958.93
2016-04-01T02:12:54.269Z,958.98
2016-04-01T02:13:54.272Z,959.01
2016-04-01T02:14:54.259Z,959.02
2016-04-01T02:15:54.262Z,959.04
2016-04-01T02:16:54.265Z,959.04
2016-04-01T02:17:54.268Z,959.1
2016-04-01T02:18:54.271Z,959.13
2016-04-01T02:19:54.257Z,959.11
2016-04-01T02:20:54.259Z,959.15
2016-04-01T02:21:54.262Z,959.09
2016-04-01T02:22:54.265Z,959.1
2016-04-01T02:23:54.268Z,959.13
2016-04-01T02:24:54.270Z,959.11
2016-04-01T02:25:54.273Z,959.14
2016-04-01T02:26:54.276Z,959.14
2016-04-01T02:27:54.263Z,959.18
2016-04-01T02:28:54.266Z,959.24
2016-04-01T02:29:54.268Z,959.28
2016-04-01T02:30:54.271Z,959.29
2016-04-01T02:31:54.258Z,959.28
2016-04-01T02:32:54.276Z,959.28
2016-04-01T02:33:54.263Z,959.31
2016-04-01T02:34:54.266Z,959.38
2016-04-01T02:35:54.269Z,959.4
2016-04-01T02:36:54.272Z,959.42
2016-04-01T02:37:54.275Z,959.48
2016-04-01T02:38:54.261Z,959.49
2016-04-01T02:39:54.264Z,959.4
2016-04-01T02:40:54.266Z,959.38
2016-04-01T02:41:54.269Z,959.41
2016-04-01T02:42:54.271Z,959.44
2016-04-01T02:43:54.274Z,959.43
2016-04-01T02:44:54.261Z,959.51
2016-04-01T02:45:54.263Z,959.54
2016-04-01T02:46:54.266Z,959.59
2016-04-01T02:47:54.269Z,959.53
2016-04-01T02:48:54.271Z,959.54
2016-04-01T02:49:54.259Z,959.55
2016-04-01T02:50:54.262Z,959.58
2016-04-01T02:51:54.265Z,959.61
2016-04-01T02:52:54.268Z,959.59
2016-04-01T02:53:54.271Z,959.61
2016-04-01T02:54:54.273Z,959.64
2016-04-01T02:55:54.260Z,959.67
2016-04-01T02:56:54.263Z,959.68
2016-04-01T02:57:54.265Z,959.74
2016-04-01T02:58:54.268Z,959.75
2016-04-01T02:59:54.271Z,959.75
2016-04-01T03:00:54.273Z,959.73
2016-04-01T03:01:54.261Z,959.77
2016-04-01T03:02:54.264Z,959.79
2016-04-01T03:03:54.266Z,959.83
2016-04-01T03:04:54.269Z,959.86
2016-04-01T03:05:54.271Z,959.9
2016-04-01T03:06:54.275Z,959.94
2016-04-01T03:07:54.277Z,959.95
2016-04-01T03:08:54.263Z,959.95
2016-04-01T03:09:54.283Z,959.97
2016-04-01T03:10:54.269Z,959.97
2016-04-01T03:11:54.272Z,959.96
2016-04-01T03:12:54.275Z,959.97
2016-04-01T03:13:54.277Z,960.01
2016-04-01T03:14:54.280Z,960.06
2016-04-01T03:15:54.282Z,960.11
2016-04-01T03:16:54.269Z,960.1
2016-04-01T03:17:54.271Z,960.12
2016-04-01T03:18:54.274Z,960.11
2016-04-01T03:19:54.262Z,960.11
2016-04-01T03:20:54.265Z,960.12
2016-04-01T03:21:54.283Z,960.12
2016-04-01T03:22:54.270Z,960.15
2016-04-01T03:23:54.273Z,960.14
2016-04-01T03:24:54.276Z,960.14
2016-04-01T03:25:54.278Z,960.13
2016-04-01T03:26:54.265Z,960.13
2016-04-01T03:27:54.268Z,960.14
2016-04-01T03:28:54.271Z,960.16
2016-04-01T03:29:54.273Z,960.18
2016-04-01T03:30:54.276Z,960.25
2016-04-01T03:31:54.279Z,960.26
2016-04-01T03:32:54.282Z,960.34
2016-04-01T03:33:54.267Z,960.37
2016-04-01T03:34:54.270Z,960.37
2016-04-01T03:35:54.273Z,960.41
2016-04-01T03:36:54.276Z,960.42
2016-04-01T03:37:54.279Z,960.44
2016-04-01T03:38:54.281Z,960.47
2016-04-01T03:39:54.269Z,960.52
2016-04-01T03:40:54.272Z,960.55
2016-04-01T03:41:54.274Z,960.58
2016-04-01T03:42:54.277Z,960.55
2016-04-01T03:43:54.280Z,960.53
2016-04-01T03:44:54.283Z,960.53
2016-04-01T03:45:54.269Z,960.55
2016-04-01T03:46:54.272Z,960.56
2016-04-01T03:47:54.275Z,960.53
2016-04-01T03:48:54.277Z,960.57
2016-04-01T03:49:54.265Z,960.56
2016-04-01T03:50:54.268Z,960.56
2016-04-01T03:51:54.270Z,960.49
2016-04-01T03:52:54.273Z,960.5
2016-04-01T03:53:54.276Z,960.52
2016-04-01T03:54:54.279Z,960.53
2016-04-01T03:55:54.265Z,960.57
2016-04-01T03:56:54.267Z,960.57
2016-04-01T03:57:54.270Z,960.56
2016-04-01T03:58:54.273Z,960.59
2016-04-01T03:59:54.275Z,960.6
2016-04-01T04:00:54.278Z,960.6
2016-04-01T04:01:54.265Z,960.63
2016-04-01T04:02:54.268Z,960.65
2016-04-01T04:03:54.271Z,960.58
2016-04-01T04:04:54.273Z,960.61
2016-04-01T04:05:54.276Z,960.63
2016-04-01T04:06:54.279Z,960.65
2016-04-01T04:07:54.281Z,960.69
2016-04-01T04:08:54.269Z,960.71
2016-04-01T04:09:54.272Z,960.73
2016-04-01T04:10:54.274Z,960.73
2016-04-01T04:11:54.277Z,960.76
2016-04-01T04:12:54.280Z,960.72
2016-04-01T04:13:54.282Z,960.76
2016-04-01T04:14:54.269Z,960.77
2016-04-01T04:15:54.272Z,960.77
2016-04-01T04:16:54.275Z,960.77
2016-04-01T04:17:54.277Z,960.79
2016-04-01T04:18:54.280Z,960.78
2016-04-01T04:19:54.267Z,960.83
2016-04-01T04:20:54.269Z,960.84
2016-04-01T04:21:54.272Z,960.86
2016-04-01T04:22:54.275Z,960.85
2016-04-01T04:23:54.278Z,960.91
2016-04-01T04:24:54.280Z,960.91
2016-04-01T04:25:54.268Z,960.94
2016-04-01T04:26:54.271Z,960.97
2016-04-01T04:27:54.274Z,961.04
2016-04-01T04:28:54.276Z,961.05
2016-04-01T04:29:54.279Z,961.02
2016-04-01T04:30:54.282Z,961.01
2016-04-01T04:31:54.284Z,960.98
2016-04-01T04:32:54.271Z,961
2016-04-01T04:33:54.273Z,961.05
2016-04-01T04:34:54.276Z,961.06
2016-04-01T04:35:54.279Z,961.09
2016-04-01T04:36:54.281Z,961.07
2016-04-01T04:37:54.284Z,961.12
2016-04-01T04:38:54.287Z,961.14
2016-04-01T04:39:59.024Z,961.18
2016-04-01T04:40:54.277Z,961.21
2016-04-01T04:41:54.280Z,961.23
2016-04-01T04:42:54.283Z,961.27
2016-04-01T04:43:54.286Z,961.29
2016-04-01T04:44:54.272Z,961.29
2016-04-01T04:45:54.275Z,961.31
2016-04-01T04:46:54.277Z,961.32
2016-04-01T04:47:54.280Z,961.38
2016-04-01T04:48:54.283Z,961.41
2016-04-01T04:49:54.269Z,961.42
2016-04-01T04:50:54.272Z,961.43
2016-04-01T04:51:54.291Z,961.46
2016-04-01T04:52:54.277Z,961.48
2016-04-01T04:53:54.280Z,961.49
2016-04-01T04:54:54.283Z,961.56
2016-04-01T04:55:54.270Z,961.55
2016-04-01T04:56:54.274Z,961.63
2016-04-01T04:57:54.276Z,961.65
2016-04-01T04:58:54.278Z,961.63
2016-04-01T04:59:54.282Z,961.66
2016-04-01T05:00:54.284Z,961.68
2016-04-01T05:01:54.286Z,961.68
2016-04-01T05:02:54.274Z,961.69
2016-04-01T05:03:54.276Z,961.68
2016-04-01T05:04:54.279Z,961.73
2016-04-01T05:05:54.281Z,961.75
2016-04-01T05:06:54.284Z,961.76
2016-04-01T05:07:54.286Z,961.8
2016-04-01T05:08:54.273Z,961.85
2016-04-01T05:09:54.276Z,961.87
2016-04-01T05:10:54.279Z,961.85
2016-04-01T05:11:54.281Z,961.91
2016-04-01T05:12:54.270Z,961.92
2016-04-01T05:13:54.272Z,961.96
2016-04-01T05:14:54.274Z,961.95
2016-04-01T05:15:54.278Z,961.95
2016-04-01T05:16:54.280Z,961.96
2016-04-01T05:17:54.282Z,962.01
2016-04-01T05:18:54.285Z,962
2016-04-01T05:19:54.272Z,962.04
2016-04-01T05:20:54.275Z,962.06
2016-04-01T05:21:54.294Z,962.09
2016-04-01T05:22:54.280Z,962.13
2016-04-01T05:23:54.283Z,962.12
2016-04-01T05:24:54.286Z,962.18
2016-04-01T05:25:54.289Z,962.2
2016-04-01T05:26:54.276Z,962.22
2016-04-01T05:27:54.278Z,962.21
2016-04-01T05:28:54.281Z,962.22
2016-04-01T05:29:54.284Z,962.22
2016-04-01T05:30:54.287Z,962.22
2016-04-01T05:31:54.289Z,962.24
2016-04-01T05:32:54.292Z,962.22
2016-04-01T05:33:54.279Z,962.26
2016-04-01T05:34:54.281Z,962.3
2016-04-01T05:35:54.284Z,962.32
2016-04-01T05:36:54.287Z,962.3
2016-04-01T05:37:54.290Z,962.35
2016-04-01T05:38:54.293Z,962.34
2016-04-01T05:39:54.279Z,962.39
2016-04-01T05:40:54.281Z,962.37
2016-04-01T05:41:54.285Z,962.4
2016-04-01T05:42:54.287Z,962.42
2016-04-01T05:43:54.290Z,962.42
2016-04-01T05:44:54.277Z,962.46
2016-04-01T05:45:54.280Z,962.46
2016-04-01T05:46:54.283Z,962.53
2016-04-01T05:47:54.286Z,962.56
2016-04-01T05:48:54.288Z,962.57
2016-04-01T05:49:54.274Z,962.59
2016-04-01T05:50:54.277Z,962.64
2016-04-01T05:51:54.280Z,962.67
2016-04-01T05:52:54.283Z,962.69
2016-04-01T05:53:54.286Z,962.73
2016-04-01T05:54:54.288Z,962.72
2016-04-01T05:55:54.291Z,962.77
2016-04-01T05:56:54.278Z,962.76
2016-04-01T05:57:54.280Z,962.83
2016-04-01T05:58:54.283Z,962.83
2016-04-01T05:59:54.286Z,962.86
2016-04-01T06:00:54.288Z,962.83
2016-04-01T06:01:54.277Z,962.83
2016-04-01T06:02:54.278Z,962.89
2016-04-01T06:03:54.281Z,962.92
2016-04-01T06:04:54.284Z,962.97
2016-04-01T06:05:54.286Z,963.02
2016-04-01T06:06:54.290Z,963.05
2016-04-01T06:07:54.280Z,963.11
2016-04-01T06:08:54.283Z,963.16
2016-04-01T06:09:54.286Z,963.16
2016-04-01T06:10:54.289Z,963.16
2016-04-01T06:11:54.291Z,963.16
2016-04-01T06:12:54.278Z,963.23
2016-04-01T06:13:54.297Z,963.23
2016-04-01T06:14:54.284Z,963.23
2016-04-01T06:15:54.286Z,963.26
2016-04-01T06:16:54.289Z,963.25
2016-04-01T06:17:54.291Z,963.32
2016-04-01T06:18:54.294Z,963.3
2016-04-01T06:19:54.282Z,963.33
2016-04-01T06:20:54.284Z,963.35
2016-04-01T06:21:54.286Z,963.36
2016-04-01T06:22:54.289Z,963.4
2016-04-01T06:23:54.293Z,963.42
2016-04-01T06:24:54.295Z,963.49
2016-04-01T06:25:54.281Z,963.47
2016-04-01T06:26:54.284Z,963.5
2016-04-01T06:27:54.287Z,963.51
2016-04-01T06:28:54.290Z,963.54
2016-04-01T06:29:54.292Z,963.59
2016-04-01T06:30:54.295Z,963.58
2016-04-01T06:31:54.298Z,963.6
2016-04-01T06:32:54.286Z,963.61
2016-04-01T06:33:54.289Z,963.62
2016-04-01T06:34:54.291Z,963.64
2016-04-01T06:35:54.294Z,963.72
2016-04-01T06:36:54.297Z,963.72
2016-04-01T06:37:54.299Z,963.74
2016-04-01T06:38:54.286Z,963.72
2016-04-01T06:39:54.289Z,963.77
2016-04-01T06:40:54.291Z,963.79
2016-04-01T06:41:54.294Z,963.79
2016-04-01T06:42:54.296Z,963.81
2016-04-01T06:43:54.299Z,963.82
2016-04-01T06:44:54.302Z,963.9
2016-04-01T06:45:54.288Z,963.92
2016-04-01T06:46:54.291Z,963.91
2016-04-01T06:47:54.294Z,963.94
2016-04-01T06:48:54.297Z,963.94
2016-04-01T06:49:54.300Z,963.98
2016-04-01T06:50:54.302Z,963.99
2016-04-01T06:51:54.305Z,964.06
2016-04-01T06:52:54.293Z,964.07
2016-04-01T06:53:54.295Z,964.07
2016-04-01T06:54:54.298Z,964.09
2016-04-01T06:55:54.301Z,964.12
2016-04-01T06:56:54.303Z,964.14
2016-04-01T06:57:54.306Z,964.16
2016-04-01T06:58:54.308Z,964.17
2016-04-01T06:59:54.295Z,964.16
2016-04-01T07:00:54.298Z,964.19
2016-04-01T07:01:54.301Z,964.17
2016-04-01T07:02:54.303Z,964.16
2016-04-01T07:03:54.306Z,964.18
2016-04-01T07:04:54.309Z,964.22
2016-04-01T07:05:54.296Z,964.2
2016-04-01T07:06:54.298Z,964.26
2016-04-01T07:07:54.300Z,964.21
2016-04-01T07:08:54.303Z,964.23
2016-04-01T07:09:54.306Z,964.25
2016-04-01T07:10:54.309Z,964.25
2016-04-01T07:11:54.312Z,964.25
2016-04-01T07:12:54.299Z,964.27
2016-04-01T07:13:54.302Z,964.3
2016-04-01T07:14:54.304Z,964.31
2016-04-01T07:15:54.307Z,964.4
2016-04-01T07:16:54.310Z,964.42
2016-04-01T07:17:54.313Z,964.43
2016-04-01T07:18:54.300Z,964.46
2016-04-01T07:19:54.319Z,964.45
2016-04-01T07:20:54.305Z,964.49
2016-04-01T07:21:54.307Z,964.45
2016-04-01T07:22:54.310Z,964.44
2016-04-01T07:23:54.314Z,964.47
2016-04-01T07:24:54.315Z,964.5
2016-04-01T07:25:54.303Z,964.52
2016-04-01T07:26:54.306Z,964.49
2016-04-01T07:27:54.309Z,964.5
2016-04-01T07:28:54.311Z,964.5
2016-04-01T07:29:54.315Z,964.47
2016-04-01T07:30:54.317Z,964.5
2016-04-01T07:31:54.319Z,964.52
2016-04-01T07:32:54.323Z,964.51
2016-04-01T07:33:54.309Z,964.57
2016-04-01T07:34:54.312Z,964.57
2016-04-01T07:35:54.315Z,964.6
2016-04-01T07:36:54.318Z,964.63
2016-04-01T07:37:54.320Z,964.66
2016-04-01T07:38:54.323Z,964.67
2016-04-01T07:39:54.326Z,964.68
2016-04-01T07:40:54.328Z,964.67
2016-04-01T07:41:54.331Z,964.68
2016-04-01T07:42:54.318Z,964.67
2016-04-01T07:43:54.318Z,964.68
2016-04-01T07:44:54.307Z,964.68
2016-04-01T07:45:54.293Z,964.69
2016-04-01T07:46:54.281Z,964.68
2016-04-01T07:47:54.268Z,964.7
2016-04-01T07:48:54.255Z,964.73
2016-04-01T07:49:54.237Z,964.78
2016-04-01T07:50:54.265Z,964.81
2016-04-01T07:51:54.231Z,964.81
2016-04-01T07:52:54.244Z,964.83
2016-04-01T07:53:54.227Z,964.84
2016-04-01T07:54:54.226Z,964.85
2016-04-01T07:55:54.227Z,964.84
2016-04-01T07:56:54.228Z,964.86
2016-04-01T07:57:54.213Z,964.81
2016-04-01T07:58:54.230Z,964.76
2016-04-01T07:59:54.216Z,964.83
2016-04-01T08:00:54.218Z,964.84
2016-04-01T08:01:54.220Z,964.8
2016-04-01T08:02:54.222Z,964.85
2016-04-01T08:03:54.224Z,964.84
2016-04-01T08:04:54.226Z,964.85
2016-04-01T08:05:54.228Z,964.83
2016-04-01T08:06:54.230Z,964.81
2016-04-01T08:07:54.233Z,964.85
2016-04-01T08:08:54.219Z,964.82
2016-04-01T08:09:54.238Z,964.86
2016-04-01T08:10:54.240Z,964.85
2016-04-01T08:11:54.227Z,964.89
2016-04-01T08:12:54.230Z,964.9
2016-04-01T08:13:54.233Z,964.88
2016-04-01T08:14:54.235Z,964.94
2016-04-01T08:15:54.238Z,964.95
2016-04-01T08:16:54.241Z,964.96
2016-04-01T08:17:54.259Z,964.99
2016-04-01T08:18:54.246Z,965.01
2016-04-01T08:19:54.249Z,965.02
2016-04-01T08:20:54.251Z,965.07
2016-04-01T08:21:54.254Z,965.03
2016-04-01T08:22:54.256Z,965.06
2016-04-01T08:23:54.244Z,965.07
2016-04-01T08:24:54.262Z,965.1
2016-04-01T08:25:54.250Z,965.13
2016-04-01T08:26:54.252Z,965.15
2016-04-01T08:27:54.254Z,965.19
2016-04-01T08:28:54.257Z,965.23
2016-04-01T08:29:54.261Z,965.26
2016-04-01T08:30:54.263Z,965.28
2016-04-01T08:31:54.266Z,965.34
2016-04-01T08:32:54.269Z,965.37
2016-04-01T08:33:54.271Z,965.4
2016-04-01T08:34:54.274Z,965.41
2016-04-01T08:35:54.277Z,965.44
2016-04-01T08:36:54.279Z,965.47
2016-04-01T08:37:54.282Z,965.5
2016-04-01T08:38:54.285Z,965.52
2016-04-01T08:39:54.287Z,965.54
2016-04-01T08:40:54.290Z,965.55
2016-04-01T08:41:54.293Z,965.54
2016-04-01T08:42:54.295Z,965.6
2016-04-01T08:43:54.298Z,965.58
2016-04-01T08:44:54.301Z,965.58
2016-04-01T08:45:54.304Z,965.66
2016-04-01T08:46:54.306Z,965.65
2016-04-01T08:47:54.309Z,965.64
2016-04-01T08:48:54.312Z,965.64
2016-04-01T08:49:54.314Z,965.65
2016-04-01T08:50:54.301Z,965.67
2016-04-01T08:51:54.320Z,965.66
2016-04-01T08:52:54.307Z,965.71
2016-04-01T08:53:54.325Z,965.65
2016-04-01T08:54:54.312Z,965.62
2016-04-01T08:55:54.315Z,965.63
2016-04-01T08:56:54.317Z,965.64
2016-04-01T08:57:54.320Z,965.64
2016-04-01T08:58:54.338Z,965.58
2016-04-01T08:59:54.325Z,965.6
2016-04-01T09:00:54.344Z,965.55
2016-04-01T09:01:54.330Z,965.54
2016-04-01T09:02:54.333Z,965.56
2016-04-01T09:03:54.336Z,965.54
2016-04-01T09:04:54.338Z,965.54
2016-04-01T09:05:54.341Z,965.5
2016-04-01T09:06:54.344Z,965.51
2016-04-01T09:07:54.347Z,965.49
2016-04-01T09:08:54.349Z,965.54
2016-04-01T09:09:54.352Z,965.58
2016-04-01T09:10:54.371Z,965.59
2016-04-01T09:11:54.357Z,965.6
2016-04-01T09:12:54.360Z,965.6
2016-04-01T09:13:54.363Z,965.59
2016-04-01T09:14:54.365Z,965.59
2016-04-01T09:15:54.368Z,965.61
2016-04-01T09:16:54.371Z,965.64
2016-04-01T09:17:54.374Z,965.66
2016-04-01T09:18:54.376Z,965.62
2016-04-01T09:19:54.379Z,965.66
2016-04-01T09:20:54.382Z,965.63
2016-04-01T09:21:54.384Z,965.67
2016-04-01T09:22:54.387Z,965.69
2016-04-01T09:23:54.389Z,965.68
2016-04-01T09:24:54.408Z,965.73
2016-04-01T09:25:54.395Z,965.71
2016-04-01T09:26:54.397Z,965.71
2016-04-01T09:27:54.416Z,965.65
2016-04-01T09:28:54.419Z,965.62
2016-04-01T09:29:54.405Z,965.64
2016-04-01T09:30:54.424Z,965.62
2016-04-01T09:31:54.411Z,965.65
2016-04-01T09:32:54.430Z,965.69
2016-04-01T09:33:54.433Z,965.68
2016-04-01T09:34:54.436Z,965.69
2016-04-01T09:35:54.438Z,965.71
2016-04-01T09:36:54.441Z,965.71
2016-04-01T09:37:54.444Z,965.77
2016-04-01T09:38:54.446Z,965.75
2016-04-01T09:39:54.449Z,965.75
2016-04-01T09:40:54.451Z,965.79
2016-04-01T09:41:54.454Z,965.77
2016-04-01T09:42:54.457Z,965.83
2016-04-01T09:43:54.460Z,965.83
2016-04-01T09:44:54.462Z,965.86
2016-04-01T09:45:54.465Z,965.88
2016-04-01T09:46:54.468Z,965.9
2016-04-01T09:47:54.471Z,965.93
2016-04-01T09:48:54.489Z,965.89
2016-04-01T09:49:54.476Z,965.92
2016-04-01T09:50:54.479Z,965.9
2016-04-01T09:51:54.496Z,965.9
2016-04-01T09:52:54.499Z,965.89
2016-04-01T09:53:54.501Z,965.95
2016-04-01T09:54:54.504Z,965.96
2016-04-01T09:55:54.507Z,965.98
2016-04-01T09:56:54.510Z,965.99
2016-04-01T09:57:54.512Z,965.98
2016-04-01T09:58:54.515Z,966.03
2016-04-01T09:59:54.518Z,966.01
2016-04-01T10:00:54.520Z,966
2016-04-01T10:01:54.523Z,966
2016-04-01T10:02:54.525Z,966
2016-04-01T10:03:54.528Z,966
2016-04-01T10:04:54.531Z,966
2016-04-01T10:05:54.533Z,966.03
2016-04-01T10:06:54.552Z,966.04
2016-04-01T10:07:54.555Z,966.03
2016-04-01T10:08:54.558Z,966.07
2016-04-01T10:09:54.561Z,966.05
2016-04-01T10:10:54.564Z,966.02
2016-04-01T10:11:54.566Z,966.05
2016-04-01T10:12:54.569Z,966.03
2016-04-01T10:13:54.571Z,966.05
2016-04-01T10:14:54.574Z,966.04
2016-04-01T10:15:54.576Z,966.05
2016-04-01T10:16:54.579Z,966.07
2016-04-01T10:17:54.582Z,966.08
2016-04-01T10:18:54.585Z,966.05
2016-04-01T10:19:54.588Z,966.12
2016-04-01T10:20:54.621Z,966.08
2016-04-01T10:21:54.609Z,966.05
2016-04-01T10:22:54.611Z,966.08
2016-04-01T10:23:54.614Z,966.1
2016-04-01T10:24:54.601Z,966.08
2016-04-01T10:25:54.619Z,966.09
2016-04-01T10:26:54.622Z,966.12
2016-04-01T10:27:54.624Z,966.09
2016-04-01T10:28:54.628Z,966.14
2016-04-01T10:29:54.630Z,966.16
2016-04-01T10:30:54.633Z,966.17
2016-04-01T10:31:54.635Z,966.26
2016-04-01T10:32:54.638Z,966.23
2016-04-01T10:33:54.641Z,966.23
2016-04-01T10:34:54.644Z,966.29
2016-04-01T10:35:54.647Z,966.29
2016-04-01T10:36:54.650Z,966.27
2016-04-01T10:37:54.667Z,966.29
2016-04-01T10:38:54.670Z,966.3
2016-04-01T10:39:54.672Z,966.29
2016-04-01T10:40:54.675Z,966.29
2016-04-01T10:41:54.677Z,966.26
2016-04-01T10:42:54.680Z,966.27
2016-04-01T10:43:54.683Z,966.27
2016-04-01T10:44:54.686Z,966.23
2016-04-01T10:45:54.689Z,966.24
2016-04-01T10:46:54.691Z,966.29
2016-04-01T10:47:54.694Z,966.29
2016-04-01T10:48:54.696Z,966.37
2016-04-01T10:49:54.699Z,966.36
2016-04-01T10:50:54.701Z,966.34
2016-04-01T10:51:54.704Z,966.31
2016-04-01T10:52:54.707Z,966.36
2016-04-01T10:53:54.710Z,966.34
2016-04-01T10:54:54.713Z,966.31
2016-04-01T10:55:54.715Z,966.36
2016-04-01T10:56:54.718Z,966.33
2016-04-01T10:57:54.720Z,966.35
2016-04-01T10:58:54.723Z,966.37
2016-04-01T10:59:54.726Z,966.37
2016-04-01T11:00:54.729Z,966.39
2016-04-01T11:01:54.731Z,966.37
2016-04-01T11:02:54.750Z,966.38
2016-04-01T11:03:54.737Z,966.36
2016-04-01T11:04:54.739Z,966.37
2016-04-01T11:05:54.742Z,966.35
2016-04-01T11:06:54.744Z,966.39
2016-04-01T11:07:54.756Z,966.42
2016-04-01T11:08:54.759Z,966.42
2016-04-01T11:09:54.762Z,966.41
2016-04-01T11:10:54.765Z,966.43
2016-04-01T11:11:54.767Z,966.43
2016-04-01T11:12:54.770Z,966.43
2016-04-01T11:13:54.772Z,966.44
2016-04-01T11:14:54.775Z,966.43
2016-04-01T11:15:54.778Z,966.4
2016-04-01T11:16:54.781Z,966.45
2016-04-01T11:17:54.784Z,966.47
2016-04-01T11:18:54.786Z,966.49
2016-04-01T11:19:54.789Z,966.48
2016-04-01T11:20:54.791Z,966.48
2016-04-01T11:21:54.794Z,966.48
2016-04-01T11:22:54.796Z,966.55
2016-04-01T11:23:54.799Z,966.57
2016-04-01T11:24:54.802Z,966.53
2016-04-01T11:25:54.805Z,966.57
2016-04-01T11:26:54.808Z,966.61
2016-04-01T11:27:54.810Z,966.54
2016-04-01T11:28:54.813Z,966.54
2016-04-01T11:29:54.815Z,966.51
2016-04-01T11:30:54.818Z,966.55
2016-04-01T11:31:54.820Z,966.55
2016-04-01T11:32:54.823Z,966.55
2016-04-01T11:33:54.826Z,966.57
2016-04-01T11:34:54.829Z,966.59
2016-04-01T11:35:54.832Z,966.6
2016-04-01T11:36:54.834Z,966.62
2016-04-01T11:37:54.837Z,966.59
2016-04-01T11:38:54.839Z,966.6
2016-04-01T11:39:54.842Z,966.56
2016-04-01T11:40:54.845Z,966.54
2016-04-01T11:41:54.848Z,966.59
2016-04-01T11:42:54.851Z,966.54
2016-04-01T11:43:54.853Z,966.57
2016-04-01T11:44:54.856Z,966.54
2016-04-01T11:45:54.859Z,966.55
2016-04-01T11:46:54.846Z,966.55
2016-04-01T11:47:54.849Z,966.57
2016-04-01T11:48:54.851Z,966.56
2016-04-01T11:49:54.870Z,966.51
2016-04-01T11:50:54.872Z,966.5
2016-04-01T11:51:54.875Z,966.54
2016-04-01T11:52:54.894Z,966.48
2016-04-01T11:53:54.865Z,966.57
2016-04-01T11:54:54.868Z,966.57
2016-04-01T11:55:54.870Z,966.56
2016-04-01T11:56:54.873Z,966.59
2016-04-01T11:57:54.875Z,966.58
2016-04-01T11:58:54.878Z,966.51
2016-04-01T11:59:54.881Z,966.61
2016-04-01T12:00:54.884Z,966.55
2016-04-01T12:01:54.887Z,966.58
2016-04-01T12:02:54.889Z,966.56
2016-04-01T12:03:54.892Z,966.58
2016-04-01T12:04:54.894Z,966.56
2016-04-01T12:05:54.897Z,966.53
2016-04-01T12:06:54.900Z,966.54
2016-04-01T12:07:54.903Z,966.52
2016-04-01T12:08:54.906Z,966.56
2016-04-01T12:09:54.908Z,966.6
2016-04-01T12:10:54.911Z,966.58
2016-04-01T12:11:54.913Z,966.61
2016-04-01T12:12:54.916Z,966.62
2016-04-01T12:13:54.918Z,966.64
2016-04-01T12:14:54.921Z,966.62
2016-04-01T12:15:54.924Z,966.63
2016-04-01T12:16:54.927Z,966.62
2016-04-01T12:17:54.930Z,966.57
2016-04-01T12:18:54.917Z,966.57
2016-04-01T12:19:54.919Z,966.55
2016-04-01T12:20:54.922Z,966.57
2016-04-01T12:21:54.924Z,966.55
2016-04-01T12:22:54.927Z,966.56
2016-04-01T12:23:54.945Z,966.58
2016-04-01T12:24:54.932Z,966.54
2016-04-01T12:25:54.951Z,966.57
2016-04-01T12:26:54.937Z,966.58
2016-04-01T12:27:54.941Z,966.59
2016-04-01T12:28:55.146Z,966.6
2016-04-01T12:29:54.946Z,966.6
2016-04-01T12:30:54.948Z,966.66
2016-04-01T12:31:54.951Z,966.6